^^
Datos históricos de la estación: Murcia-Puente Tocinos
Diario Informe para Julio 28, 2019 Unidades:  Ingés    Métrico   Ambas
Diario Semanal Mensual Anual
  Máxima: Mínima: Promedio:
Temperatura: 78.4 °F 65.1 °F 70.7 °F
Punto de rocio: 63.5 °F 56.7 °F 61 °F
Humedad: 92% 49% 73%
Velocidad viento: 14.7mph 0mph 6.8mph
Racha viento: 26.5mph - -
Viento- - ENE
Presión: 30 in 29.8 in -
Precipitación: 0 in    
 
 
Tabla de datos para Julio 28, 2019
Hora Temperatura Punto de rocio Presión Viento Velocidad viento Racha viento Humedad Intensidad lluvia(por hora) Nubes
00:04 67.8 °F 62.1 °F 29.8 in NNE 6.2 mph 12.7 mph 82% 0 in
00:09 67.6 °F 61.9 °F 29.8 in NNE 6.7 mph 14.5 mph 82% 0 in
00:14 67.5 °F 62.1 °F 29.8 in NE 7.6 mph 15 mph 82.7% 0 in
00:19 67.3 °F 61.9 °F 29.8 in NNE 8 mph 15 mph 83% 0 in
00:24 67.3 °F 62.1 °F 29.8 in NNE 8.7 mph 13 mph 83.7% 0 in
00:29 67.1 °F 62.1 °F 29.8 in NNE 8.3 mph 13 mph 84% 0 in
00:34 66.9 °F 62.2 °F 29.8 in NNE 7.6 mph 12 mph 84.7% 0 in
00:39 66.9 °F 62.2 °F 29.8 in NNE 7.5 mph 12 mph 85% 0 in
00:44 66.7 °F 62.1 °F 29.8 in NE 7.4 mph 12 mph 85% 0 in
00:49 66.7 °F 62.2 °F 29.8 in NE 7.2 mph 12.7 mph 85.5% 0 in
00:54 66.7 °F 62.4 °F 29.8 in NE 6.9 mph 13 mph 86% 0 in
00:59 66.6 °F 62.2 °F 29.8 in NE 7.1 mph 13 mph 86% 0 in
01:04 66.6 °F 62.2 °F 29.8 in NE 7.6 mph 13 mph 86% 0 in
01:09 66.6 °F 62.2 °F 29.8 in NE 7.3 mph 12 mph 86% 0 in
01:14 66.6 °F 62.6 °F 29.8 in NE 6.9 mph 12 mph 86.9% 0 in
01:19 66.4 °F 62.4 °F 29.8 in NE 6.3 mph 10.4 mph 87% 0 in
01:24 66.4 °F 62.4 °F 29.8 in NNE 5.4 mph 10 mph 87% 0 in
01:29 66.2 °F 62.2 °F 29.8 in NE 5.4 mph 10 mph 87% 0 in
01:34 66 °F 62.1 °F 29.8 in NE 5.4 mph 12.7 mph 87% 0 in
01:39 66 °F 62.2 °F 29.8 in NE 6 mph 13 mph 87.5% 0 in
01:44 66 °F 62.4 °F 29.8 in NE 6.9 mph 12 mph 88% 0 in
01:49 65.8 °F 62.1 °F 29.8 in NE 6.9 mph 13 mph 87.4% 0 in
01:54 65.8 °F 61.7 °F 29.8 in NE 6.9 mph 13 mph 86.6% 0 in
01:59 65.7 °F 60.8 °F 29.8 in NE 6.9 mph 11.5 mph 84.2% 0 in
02:04 65.8 °F 60.3 °F 29.8 in NE 6.9 mph 12 mph 82.2% 0 in
02:09 65.8 °F 59.9 °F 29.8 in NE 6.1 mph 8 mph 81% 0 in
02:14 66 °F 60.1 °F 29.8 in North 4.7 mph 7 mph 81.4% 0 in
02:19 66 °F 60.4 °F 29.8 in NNE 4.3 mph 8.1 mph 82.5% 0 in
02:24 65.8 °F 60.8 °F 29.8 in NNE 3.6 mph 8.5 mph 84% 0 in
02:29 65.8 °F 61.5 °F 29.8 in NNE 4.2 mph 10.7 mph 86.1% 0 in
02:34 65.8 °F 62.1 °F 29.8 in NE 5.4 mph 11 mph 87.6% 0 in
02:39 65.7 °F 62.1 °F 29.8 in NE 6 mph 11.5 mph 88.5% 0 in
02:44 65.5 °F 62.2 °F 29.8 in NE 6.9 mph 12 mph 89% 0 in
02:49 65.5 °F 62.1 °F 29.8 in NE 6.9 mph 12 mph 89% 0 in
02:54 65.3 °F 61.9 °F 29.8 in NE 6.9 mph 12 mph 89% 0 in
02:59 65.1 °F 61.9 °F 29.8 in NE 6.2 mph 11 mph 89.1% 0 in
03:04 65.1 °F 62.1 °F 29.8 in NE 5.2 mph 9 mph 90% 0 in
03:09 65.1 °F 62.1 °F 29.8 in NE 5.2 mph 8 mph 90% 0 in
03:14 65.1 °F 62.2 °F 29.8 in NE 5.2 mph 7 mph 90.4% 0 in
03:19 65.1 °F 62.4 °F 29.8 in NE 4.6 mph 6.9 mph 91% 0 in
03:24 65.1 °F 62.4 °F 29.8 in NE 3.6 mph 7 mph 91% 0 in
03:29 65.1 °F 62.4 °F 29.8 in NE 3.7 mph 6.2 mph 91% 0 in
03:34 65.3 °F 62.8 °F 29.8 in NNE 4 mph 7.4 mph 91.8% 0 in
03:39 65.3 °F 63 °F 29.8 in NE 3.9 mph 7 mph 92% 0 in
03:44 65.5 °F 63.1 °F 29.8 in NE 3.6 mph 6.9 mph 92% 0 in
03:49 65.5 °F 63.1 °F 29.8 in NE 3.7 mph 7 mph 92% 0 in
03:54 65.5 °F 63.1 °F 29.8 in NE 4 mph 7 mph 92% 0 in
03:59 65.5 °F 63.1 °F 29.8 in NNE 4 mph 7 mph 92% 0 in
04:04 65.5 °F 63.1 °F 29.8 in NNE 4 mph 6 mph 92% 0 in
04:09 65.5 °F 63.1 °F 29.8 in NNE 3.9 mph 6.2 mph 92% 0 in
04:14 65.7 °F 63.1 °F 29.8 in NNE 3.6 mph 8.1 mph 92% 0 in
04:19 65.7 °F 63.3 °F 29.8 in NNE 3.9 mph 8 mph 92% 0 in
04:24 65.7 °F 63.3 °F 29.8 in NNE 4.3 mph 7.4 mph 92% 0 in
04:29 65.7 °F 63.3 °F 29.8 in NNE 4.2 mph 7 mph 92% 0 in
04:34 65.7 °F 63.3 °F 29.8 in NNE 4 mph 6.2 mph 92% 0 in
04:39 65.7 °F 63.3 °F 29.8 in NE 3.7 mph 6 mph 92% 0 in
04:44 65.7 °F 63.3 °F 29.8 in NE 3.1 mph 5.8 mph 92% 0 in
04:49 65.7 °F 63.3 °F 29.8 in NNE 3.4 mph 6.2 mph 92% 0 in
04:54 65.7 °F 63.3 °F 29.8 in NNE 4 mph 6 mph 92% 0 in
04:59 65.7 °F 63.3 °F 29.8 in NE 3.6 mph 5.2 mph 92% 0 in
05:04 65.7 °F 63.3 °F 29.8 in NE 2.9 mph 5.8 mph 92% 0 in
05:09 65.7 °F 63.3 °F 29.8 in NNE 2.9 mph 6 mph 92% 0 in
05:14 65.7 °F 63.3 °F 29.8 in NE 2.9 mph 5.8 mph 92% 0 in
05:19 65.7 °F 63.3 °F 29.8 in NE 2.9 mph 6 mph 92% 0 in
05:24 65.7 °F 63.3 °F 29.8 in NE 2.9 mph 6.2 mph 92% 0 in
05:29 65.7 °F 63.3 °F 29.8 in NE 2.9 mph 6 mph 92% 0 in
05:34 65.8 °F 63.5 °F 29.8 in NE 2.9 mph 3.6 mph 92% 0 in
05:39 65.8 °F 63.5 °F 29.8 in ENE 2.5 mph 4.6 mph 92% 0 in
05:44 65.8 °F 63.5 °F 29.8 in ENE 2 mph 5 mph 92% 0 in
05:49 65.8 °F 63.5 °F 29.8 in ENE 1.3 mph 3 mph 92% 0 in
05:54 65.8 °F 63.5 °F 29.8 in Calm   4 mph 92% 0 in
05:59 66 °F 63.5 °F 29.8 in ONO 0.7 mph 5.2 mph 91.9% 0 in
06:04 65.8 °F 63.1 °F 29.8 in NO 1.8 mph 5.2 mph 91% 0 in
06:09 65.8 °F 63.1 °F 29.8 in NNO 2.2 mph 5.2 mph 91% 0 in
06:14 65.8 °F 63 °F 29.8 in NO 2.9 mph 5 mph 90.6% 0 in
06:19 65.8 °F 62.8 °F 29.8 in NO 2.5 mph 5.2 mph 90% 0 in
06:24 65.8 °F 62.8 °F 29.8 in NO 2 mph 5.9 mph 89.8% 0 in
06:29 65.8 °F 62.4 °F 29.8 in NO 2.3 mph 6 mph 89% 0 in
06:34 65.8 °F 62.4 °F 29.8 in NO 2.9 mph 5 mph 89% 0 in
06:39 65.8 °F 62.4 °F 29.8 in NO 2.5 mph 4 mph 89% 0 in
06:44 65.8 °F 62.4 °F 29.8 in NO 2 mph 3 mph 89% 0 in
06:49 66 °F 62.6 °F 29.8 in NO 1.8 mph 3.1 mph 89% 0 in
06:54 66 °F 62.4 °F 29.8 in NO 1.4 mph 3.6 mph 88.2% 0 in
06:59 66 °F 62.4 °F 29.8 in NO 1.6 mph 4 mph 88% 0 in
07:04 66 °F 62.6 °F 29.8 in NE 2 mph 4.6 mph 88.6% 0 in
07:09 66.4 °F 62.8 °F 29.8 in ESE 2 mph 5 mph 88.4% 0 in
07:14 66.4 °F 62.6 °F 29.8 in SE 2 mph 4 mph 88% 0 in
07:19 66.4 °F 62.8 °F 29.9 in SE 1.8 mph 3 mph 88% 0 in
07:24 66.4 °F 62.8 °F 29.9 in SE 1.4 mph 2.9 mph 88% 0 in
07:29 66.4 °F 62.4 °F 29.9 in Sur 1.4 mph 4.7 mph 87.1% 0 in
07:34 66.4 °F 62.4 °F 29.9 in Oeste 1.4 mph 5 mph 87% 0 in
07:39 66.2 °F 62.2 °F 29.9 in ONO 1.6 mph 5 mph 87% 0 in
07:44 66.2 °F 62.2 °F 29.9 in ONO 2 mph 5 mph 87% 0 in
07:49 66.2 °F 62.2 °F 29.9 in ONO 1.9 mph 4.6 mph 87% 0 in
07:54 66.2 °F 62.2 °F 29.9 in ONO 1.8 mph 5 mph 87% 0 in
07:59 66.2 °F 62.2 °F 29.9 in NO 1.9 mph 5 mph 87% 0 in
08:04 66.4 °F 62.2 °F 29.9 in NO 2 mph 5 mph 87% 0 in
08:09 66.6 °F 62.4 °F 29.9 in Oeste 2.2 mph 5 mph 86.8% 0 in
08:14 66.6 °F 62.2 °F 29.9 in Oeste 2.4 mph 4 mph 86% 0 in
08:19 66.7 °F 62.4 °F 29.9 in Oeste 2.2 mph 4.6 mph 86% 0 in
08:24 66.7 °F 62.6 °F 29.9 in NO 2 mph 5 mph 86% 0 in
08:29 67.3 °F 62.8 °F 29.9 in NE 2 mph 5 mph 85.4% 0 in
08:34 67.6 °F 63 °F 29.9 in NE 2 mph 4.6 mph 84.6% 0 in
08:39 68.2 °F 63 °F 29.9 in NE 2 mph 5 mph 83.5% 0 in
08:44 68.5 °F 63.1 °F 29.9 in NNE 2 mph 4.7 mph 82.6% 0 in
08:49 68.9 °F 62.8 °F 29.9 in NNE 1.9 mph 5 mph 81.1% 0 in
08:54 69.1 °F 62.8 °F 29.9 in NNO 1.8 mph 5 mph 80.4% 0 in
08:59 69.3 °F 62.8 °F 29.9 in North 2.1 mph 5 mph 80% 0 in
09:04 69.4 °F 63 °F 29.9 in NE 2.4 mph 6.4 mph 79.8% 0 in
09:09 69.6 °F 62.6 °F 29.9 in NE 2.5 mph 7 mph 78.2% 0 in
09:14 69.6 °F 62.6 °F 29.9 in NE 2.9 mph 7 mph 78.1% 0 in
09:19 69.8 °F 62.6 °F 29.9 in ENE 3 mph 6 mph 77.9% 0 in
09:24 69.8 °F 62.4 °F 29.9 in ESE 3.1 mph 5 mph 77% 0 in
09:29 70 °F 62.4 °F 29.9 in SE 2.7 mph 4.6 mph 77% 0 in
09:34 70.2 °F 62.4 °F 29.9 in NO 2 mph 5.8 mph 76.1% 0 in
09:39 70.3 °F 62.4 °F 29.9 in NO 2.4 mph 6 mph 76% 0 in
09:44 70.7 °F 62.4 °F 29.9 in NNO 2.9 mph 5.9 mph 75.3% 0 in
09:49 70.7 °F 62.4 °F 29.9 in NO 3 mph 6.4 mph 75% 0 in
09:54 70.9 °F 62.4 °F 29.9 in NE 3.1 mph 7 mph 74.6% 0 in
09:59 71.1 °F 62.4 °F 29.9 in NNE 3.1 mph 6 mph 74% 0 in
10:04 71.6 °F 62.6 °F 29.9 in NNE 3.1 mph 8.1 mph 73.1% 0 in
10:09 71.8 °F 62.2 °F 29.9 in NE 3.3 mph 8 mph 72% 0 in
10:14 72 °F 62.1 °F 29.9 in ENE 3.6 mph 8.5 mph 71.2% 0 in
10:19 72.1 °F 61.9 °F 29.9 in ENE 3.4 mph 9 mph 70.3% 0 in
10:24 72.5 °F 61.5 °F 29.9 in NE 2.9 mph 7.4 mph 68.5% 0 in
10:29 72.9 °F 61.3 °F 29.9 in NE 3.2 mph 7 mph 67% 0 in
10:34 73 °F 60.8 °F 29.9 in NNE 3.6 mph 6.2 mph 65.3% 0 in
10:39 73.4 °F 60.4 °F 29.9 in NE 3.4 mph 8.5 mph 63.8% 0 in
10:44 73.4 °F 59.9 °F 29.9 in NE 3.1 mph 9.7 mph 62.4% 0 in
10:49 73.4 °F 59.9 °F 29.9 in NE 3.5 mph 10 mph 63% 0 in
10:54 73.6 °F 59.5 °F 29.9 in NE 4.3 mph 10.7 mph 61.6% 0 in
10:59 73.6 °F 59.4 °F 29.9 in ENE 4.7 mph 11 mph 61% 0 in
11:04 73.6 °F 59.4 °F 29.9 in Este 5.2 mph 9.7 mph 61.3% 0 in
11:09 73.8 °F 59.5 °F 29.9 in NE 5.3 mph 10.4 mph 61% 0 in
11:14 73.8 °F 59.4 °F 29.9 in NE 5.4 mph 10.4 mph 60.6% 0 in
11:19 73.8 °F 59 °F 29.9 in NE 5.8 mph 13.7 mph 60% 0 in
11:24 73.8 °F 58.3 °F 29.9 in NE 6.4 mph 14 mph 58.5% 0 in
11:29 74.1 °F 58.5 °F 29.9 in NE 6.6 mph 13 mph 58.1% 0 in
11:34 74.5 °F 58.6 °F 29.9 in NE 6.9 mph 10.7 mph 58% 0 in
11:39 74.7 °F 58.8 °F 29.9 in NE 6.3 mph 11 mph 57.7% 0 in
11:44 75.2 °F 59.2 °F 29.9 in NE 5.4 mph 15.2 mph 57.7% 0 in
11:49 75.6 °F 59 °F 29.9 in NE 5.6 mph 15 mph 56.5% 0 in
11:54 75.7 °F 57.9 °F 29.9 in NE 5.9 mph 15 mph 54.2% 0 in
11:59 75.9 °F 58.6 °F 29.9 in ENE 5.9 mph 13 mph 54.9% 0 in
12:04 76.1 °F 57.7 °F 29.9 in ENE 5.9 mph 13.8 mph 53.2% 0 in
12:09 76.3 °F 58.1 °F 29.9 in ENE 6.1 mph 14 mph 53.5% 0 in
12:14 76.5 °F 57.7 °F 29.9 in NE 6.4 mph 13.8 mph 52.7% 0 in
12:19 76.3 °F 57.4 °F 29.9 in NE 6.8 mph 15.2 mph 52.1% 0 in
12:24 76.3 °F 57 °F 29.9 in ENE 7.4 mph 15 mph 51.3% 0 in
12:29 76.5 °F 57 °F 29.9 in ENE 7 mph 15 mph 51% 0 in
12:34 76.6 °F 57 °F 29.9 in NE 6.2 mph 13.8 mph 50.6% 0 in
12:39 76.6 °F 57.2 °F 29.9 in ENE 6.5 mph 14 mph 50.8% 0 in
12:44 77 °F 57.2 °F 29.9 in ENE 6.9 mph 11.4 mph 50.4% 0 in
12:49 77.4 °F 56.7 °F 29.9 in NE 6.6 mph 12.7 mph 49% 0 in
12:54 77.2 °F 57 °F 29.9 in ENE 6.2 mph 13.7 mph 49.8% 0 in
12:59 77.2 °F 57 °F 29.9 in NE 6.8 mph 16.1 mph 49.8% 0 in
13:04 77.4 °F 57.2 °F 29.9 in NE 7.6 mph 16 mph 50% 0 in
13:09 77.7 °F 57.6 °F 29.9 in NE 7 mph 12 mph 50% 0 in
13:14 77.7 °F 57.9 °F 29.9 in Este 5.9 mph 11.8 mph 50.5% 0 in
13:19 77.9 °F 58.1 °F 29.9 in ENE 6.1 mph 12.7 mph 50.8% 0 in
13:24 77.7 °F 57.9 °F 29.9 in ENE 6.4 mph 13 mph 50.7% 0 in
13:29 77.5 °F 58.6 °F 29.9 in NE 6.6 mph 15.2 mph 52% 0 in
13:34 77.4 °F 58.8 °F 29.9 in NE 6.9 mph 17.5 mph 52.6% 0 in
13:39 77 °F 59 °F 29.9 in NE 8.1 mph 17 mph 53.7% 0 in
13:44 77.2 °F 59 °F 29.9 in NE 10 mph 16.1 mph 53.7% 0 in
13:49 77.5 °F 59.2 °F 29.9 in NE 9.3 mph 18.4 mph 53.5% 0 in
13:54 77.4 °F 59.4 °F 29.9 in ENE 8.1 mph 18 mph 53.8% 0 in
13:59 77.4 °F 59 °F 29.9 in NE 8.3 mph 17 mph 53.3% 0 in
14:04 77.2 °F 59 °F 29.9 in NE 8.5 mph 16 mph 53.7% 0 in
14:09 77.7 °F 59.4 °F 29.9 in NE 8.1 mph 14 mph 53.3% 0 in
14:14 77.7 °F 59.2 °F 29.9 in NE 7.4 mph 17.5 mph 52.9% 0 in
14:19 77.5 °F 59.4 °F 29.9 in NE 7.9 mph 18.4 mph 53.3% 0 in
14:24 77.2 °F 59.5 °F 29.9 in NNE 8.7 mph 19 mph 54.5% 0 in
14:29 77.4 °F 60.1 °F 29.9 in NE 9.4 mph 19 mph 55.2% 0 in
14:34 78.1 °F 59.9 °F 29.9 in NE 10.7 mph 18.5 mph 53.8% 0 in
14:39 77.9 °F 59.5 °F 29.9 in NE 10 mph 19 mph 53% 0 in
14:44 77.7 °F 59 °F 29.9 in ENE 8.7 mph 18 mph 52.6% 0 in
14:49 77.9 °F 58.6 °F 29.9 in NE 8.7 mph 15 mph 51.6% 0 in
14:54 77.9 °F 58.5 °F 29.9 in NE 8.7 mph 16.3 mph 51.4% 0 in
14:59 77.7 °F 58.1 °F 29.9 in NE 9.3 mph 17.3 mph 50.8% 0 in
15:04 77.7 °F 58.1 °F 29.9 in ENE 10.2 mph 17 mph 51% 0 in
15:09 78.3 °F 58.3 °F 29.9 in NE 9.6 mph 19 mph 50.1% 0 in
15:14 78.4 °F 58.1 °F 29.9 in NE 8.7 mph 19 mph 49.6% 0 in
15:19 78.3 °F 57.9 °F 29.9 in NE 9.1 mph 19 mph 49.8% 0 in
15:24 78.1 °F 57.9 °F 29.9 in NE 9.7 mph 19 mph 50.2% 0 in
15:29 77.9 °F 58.3 °F 29.9 in NE 9.7 mph 18.4 mph 50.9% 0 in
15:34 77.9 °F 58.5 °F 29.9 in NE 9.7 mph 18.5 mph 51.2% 0 in
15:39 77.9 °F 58.5 °F 29.9 in NE 10.5 mph 19 mph 51.3% 0 in
15:44 77.7 °F 59 °F 29.9 in NE 11.8 mph 20.7 mph 52.4% 0 in
15:49 77.7 °F 59.2 °F 29.9 in NE 11.2 mph 21 mph 53% 0 in
15:54 77.7 °F 59.2 °F 29.9 in NE 10.2 mph 17.5 mph 53% 0 in
15:59 78.1 °F 59.5 °F 29.9 in NE 9.8 mph 17.3 mph 53% 0 in
16:04 78.3 °F 59.7 °F 29.9 in NE 9.2 mph 20.8 mph 53% 0 in
16:09 77.5 °F 59.4 °F 29.8 in NE 10.4 mph 21 mph 53.4% 0 in
16:14 77.5 °F 59.9 °F 29.8 in NE 12.5 mph 21 mph 54.3% 0 in
16:19 77.7 °F 59.9 °F 29.8 in NE 12.2 mph 20.7 mph 54.3% 0 in
16:24 77.4 °F 59.9 °F 29.8 in NE 11.8 mph 24.6 mph 55.1% 0 in
16:29 77.2 °F 60.3 °F 29.8 in NE 12.2 mph 25 mph 56.1% 0 in
16:34 77.4 °F 60.3 °F 29.8 in NE 13 mph 23 mph 55.7% 0 in
16:39 77.2 °F 60.3 °F 29.8 in NE 13 mph 22 mph 56% 0 in
16:44 76.6 °F 60.1 °F 29.8 in NE 13 mph 22 mph 56.6% 0 in
16:49 76.3 °F 60.1 °F 29.8 in NE 13.7 mph 26.5 mph 57.5% 0 in
16:54 76.3 °F 60.4 °F 29.8 in NE 14.7 mph 26 mph 58% 0 in
16:59 76.3 °F 60.4 °F 29.8 in NE 14.2 mph 22.3 mph 57.9% 0 in
17:04 76.5 °F 60.6 °F 29.9 in NE 13.5 mph 22 mph 58% 0 in
17:09 76.1 °F 60.4 °F 29.9 in NE 13.3 mph 21 mph 58.4% 0 in
17:14 75.9 °F 60.6 °F 29.9 in NE 13 mph 21.9 mph 59% 0 in
17:19 75.6 °F 60.6 °F 29.9 in NE 13 mph 22 mph 60% 0 in
17:24 75.4 °F 60.6 °F 29.8 in NE 13 mph 24.2 mph 59.9% 0 in
17:29 75.4 °F 60.6 °F 29.8 in NE 13 mph 24 mph 60% 0 in
17:34 75.6 °F 60.6 °F 29.9 in NE 13 mph 23 mph 60% 0 in
17:39 75.6 °F 60.6 °F 29.9 in NE 12.6 mph 19.6 mph 60% 0 in
17:44 75.4 °F 60.4 °F 29.9 in NE 11.4 mph 20.7 mph 60% 0 in
17:49 75.6 °F 60.6 °F 29.9 in NE 11.4 mph 21 mph 60% 0 in
17:54 75.6 °F 60.3 °F 29.9 in NE 11.4 mph 21.3 mph 59.3% 0 in
17:59 74.8 °F 60.1 °F 29.9 in NE 11.7 mph 21 mph 60% 0 in
18:04 74.7 °F 60.3 °F 29.9 in NE 12.3 mph 21.3 mph 60.7% 0 in
18:09 74.8 °F 60.4 °F 29.8 in NE 12.6 mph 21 mph 60.8% 0 in
18:14 75 °F 60.6 °F 29.8 in ENE 13 mph 17.5 mph 61% 0 in
18:19 75 °F 60.6 °F 29.9 in NE 12.2 mph 19 mph 60.9% 0 in
18:24 74.8 °F 60.6 °F 29.9 in NE 10.7 mph 19 mph 61.4% 0 in
18:29 74.8 °F 60.6 °F 29.9 in NE 10.5 mph 18.5 mph 61% 0 in
18:34 75 °F 60.6 °F 29.9 in NE 10.2 mph 19 mph 61% 0 in
18:39 74.7 °F 60.6 °F 29.9 in NE 10.6 mph 19.6 mph 61.7% 0 in
18:44 74.5 °F 61 °F 29.9 in NE 11.4 mph 20 mph 62.9% 0 in
18:49 74.1 °F 60.8 °F 29.9 in NE 11.6 mph 20.7 mph 63% 0 in
18:54 73.9 °F 60.8 °F 29.9 in NE 11.8 mph 21 mph 63.7% 0 in
18:59 73.9 °F 60.8 °F 29.9 in NE 12.1 mph 20.7 mph 63.9% 0 in
19:04 73.6 °F 60.6 °F 29.9 in NE 12.5 mph 21 mph 63.9% 0 in
19:09 73.2 °F 60.4 °F 29.9 in NE 12.9 mph 21 mph 64.5% 0 in
19:14 73.4 °F 60.6 °F 29.9 in NE 13.5 mph 19 mph 64.4% 0 in
19:19 73.6 °F 60.3 °F 29.9 in NE 12.1 mph 17 mph 63.2% 0 in
19:24 73.4 °F 60.3 °F 29.9 in NNE 9.7 mph 19 mph 63.8% 0 in
19:29 73 °F 60.4 °F 29.9 in NE 10.6 mph 19.6 mph 64.8% 0 in
19:34 72.9 °F 60.6 °F 29.9 in NE 12.3 mph 20.7 mph 65.5% 0 in
19:39 72.7 °F 60.6 °F 29.9 in NE 12.1 mph 21 mph 66% 0 in
19:44 72.3 °F 60.6 °F 29.9 in NE 11.8 mph 20 mph 66.9% 0 in
19:49 72.1 °F 60.8 °F 29.9 in NE 12.2 mph 19 mph 67.7% 0 in
19:54 72.1 °F 61 °F 29.9 in NE 13 mph 18.4 mph 68% 0 in
19:59 72.1 °F 61 °F 29.9 in NE 11.9 mph 20.7 mph 68% 0 in
20:04 72 °F 60.8 °F 29.9 in NE 10.2 mph 21 mph 68.1% 0 in
20:09 71.8 °F 60.8 °F 29.9 in NE 10.6 mph 18 mph 68.5% 0 in
20:14 71.6 °F 60.6 °F 29.9 in NE 11.2 mph 17 mph 68.3% 0 in
20:19 71.4 °F 60.4 °F 29.9 in NE 10.8 mph 17.3 mph 68.3% 0 in
20:24 71.2 °F 60.6 °F 29.9 in NE 10 mph 17 mph 68.9% 0 in
20:29 71.2 °F 60.6 °F 29.9 in NE 10 mph 17.3 mph 69.5% 0 in
20:34 71.1 °F 60.8 °F 29.9 in NE 10 mph 17 mph 70% 0 in
20:39 71.1 °F 60.6 °F 29.9 in NE 9.7 mph 16.3 mph 70% 0 in
20:44 70.7 °F 60.4 °F 29.9 in ENE 9.2 mph 16.1 mph 70.2% 0 in
20:49 70.5 °F 60.6 °F 29.9 in ENE 9.2 mph 16.1 mph 71% 0 in
20:54 70.3 °F 60.8 °F 29.9 in NE 9.2 mph 16 mph 71.8% 0 in
20:59 70.2 °F 61 °F 29.9 in NE 8.9 mph 15 mph 72.3% 0 in
21:04 70.2 °F 61 °F 29.9 in NE 8.5 mph 15.2 mph 72.7% 0 in
21:09 69.8 °F 60.8 °F 29.9 in NE 8.3 mph 15 mph 73% 0 in
21:14 69.4 °F 60.8 °F 29.9 in NE 8.1 mph 16.1 mph 73.6% 0 in
21:19 69.3 °F 60.6 °F 29.9 in NE 8.5 mph 17.3 mph 73.9% 0 in
21:24 69.3 °F 60.4 °F 29.9 in ENE 9.2 mph 17 mph 74% 0 in
21:29 69.1 °F 60.6 °F 29.9 in NE 8.6 mph 14 mph 74.6% 0 in
21:34 68.7 °F 60.6 °F 29.9 in NE 7.6 mph 15.2 mph 75.4% 0 in
21:39 68.7 °F 60.8 °F 29.9 in NE 8 mph 15 mph 76.1% 0 in
21:44 68.5 °F 61.2 °F 29.9 in NE 8.5 mph 13.7 mph 77% 0 in
21:49 68.5 °F 61 °F 29.9 in NE 8.1 mph 14 mph 77% 0 in
21:54 68.4 °F 61 °F 29.9 in NE 7.6 mph 14 mph 77.6% 0 in
21:59 68.2 °F 61.2 °F 29.9 in NE 7.6 mph 13.8 mph 78% 0 in
22:04 68 °F 61 °F 29.9 in NE 7.6 mph 14 mph 78% 0 in
22:09 68 °F 61.2 °F 29.9 in NE 7.6 mph 14 mph 78.8% 0 in
22:14 67.8 °F 61.2 °F 29.9 in NE 7.6 mph 11.8 mph 79% 0 in
22:19 67.8 °F 61.2 °F 30 in NE 7.6 mph 15 mph 79% 0 in
22:24 67.6 °F 61 °F 30 in NE 7.6 mph 15 mph 79% 0 in
22:29 67.6 °F 61 °F 30 in NE 8 mph 14 mph 79% 0 in
22:34 67.6 °F 61.2 °F 30 in NE 8.5 mph 14 mph 80% 0 in
22:39 67.6 °F 61.2 °F 30 in NE 8.1 mph 14 mph 80% 0 in
22:44 67.5 °F 61.2 °F 30 in NE 7.4 mph 13.8 mph 80% 0 in
22:49 67.5 °F 61.2 °F 30 in NE 7.8 mph 14 mph 80% 0 in
22:54 67.5 °F 61.2 °F 30 in NE 8.5 mph 14 mph 80.1% 0 in
22:59 67.5 °F 61.3 °F 30 in NE 7.5 mph 9 mph 80.6% 0 in
23:04 67.3 °F 61.2 °F 30 in NE 5.9 mph 12.7 mph 81% 0 in
23:09 67.3 °F 61.2 °F 30 in NE 5.9 mph 13 mph 81% 0 in
23:14 67.3 °F 61.2 °F 30 in NE 5.9 mph 11.8 mph 81% 0 in
23:19 66.9 °F 61 °F 30 in NE 6 mph 12 mph 81% 0 in
23:24 66.7 °F 60.8 °F 30 in NE 6.2 mph 12 mph 81% 0 in
23:29 66.7 °F 61 °F 30 in NE 6.8 mph 14 mph 81.7% 0 in
23:34 66.6 °F 61 °F 30 in NE 8.1 mph 14 mph 82% 0 in
23:39 66.6 °F 61 °F 30 in NE 7.6 mph 12 mph 82% 0 in
23:44 66.4 °F 60.8 °F 30 in NE 6.9 mph 10 mph 82% 0 in
23:49 66.2 °F 60.6 °F 30 in NE 6.6 mph 10.4 mph 82.2% 0 in
23:54 66 °F 60.6 °F 30 in NE 6.2 mph 10 mph 83% 0 in
23:59 65.8 °F 60.4 °F 30 in NE 6.2 mph 10.7 mph 83% 0 in
Murcia-Puente Tocinos, España
Compliments of Weather Underground - 3.5 mb

La estación de MeteoMurcia.com, publica sus datos en los siguientes proyectos:

Weather Underground PWS IMURCIAP2 Meteoclimatic www.awekas.at

W3Counter
Web Analytics